sensor_id;sensor_type;location;lat;lon;timestamp;pressure;altitude;pressure_sealevel;temperature;humidity
57192;BME280;43052;52.588;13.396;2022-11-25T00:00:45;101160.72;;;3.99;77.46
57192;BME280;43052;52.588;13.396;2022-11-25T00:03:10;101162.44;;;3.98;77.51
57192;BME280;43052;52.588;13.396;2022-11-25T00:05:36;101147.53;;;3.89;77.57
57192;BME280;43052;52.588;13.396;2022-11-25T00:08:01;101161.47;;;3.95;77.82
57192;BME280;43052;52.588;13.396;2022-11-25T00:10:26;101157.44;;;4.04;77.78
57192;BME280;43052;52.588;13.396;2022-11-25T00:12:51;101161.03;;;4.10;77.86
57192;BME280;43052;52.588;13.396;2022-11-25T00:15:17;101164.53;;;4.12;77.91
57192;BME280;43052;52.588;13.396;2022-11-25T00:17:42;101146.41;;;4.12;77.95
57192;BME280;43052;52.588;13.396;2022-11-25T00:20:07;101155.22;;;4.18;77.84
57192;BME280;43052;52.588;13.396;2022-11-25T00:22:33;101149.19;;;4.18;77.85
57192;BME280;43052;52.588;13.396;2022-11-25T00:24:58;101141.19;;;4.10;77.92
57192;BME280;43052;52.588;13.396;2022-11-25T00:27:23;101163.09;;;4.21;78.12
57192;BME280;43052;52.588;13.396;2022-11-25T00:29:49;101157.06;;;4.22;78.12
57192;BME280;43052;52.588;13.396;2022-11-25T00:32:15;101158.06;;;4.28;77.99
57192;BME280;43052;52.588;13.396;2022-11-25T00:34:40;101152.91;;;4.29;77.74
57192;BME280;43052;52.588;13.396;2022-11-25T00:37:05;101147.09;;;4.38;77.76
57192;BME280;43052;52.588;13.396;2022-11-25T00:39:30;101162.81;;;4.44;77.67
57192;BME280;43052;52.588;13.396;2022-11-25T00:41:56;101154.19;;;4.45;77.59
57192;BME280;43052;52.588;13.396;2022-11-25T00:44:40;101158.69;;;4.52;77.33
57192;BME280;43052;52.588;13.396;2022-11-25T00:47:08;101169.94;;;4.53;77.43
57192;BME280;43052;52.588;13.396;2022-11-25T00:49:35;101157.75;;;4.49;77.43
57192;BME280;43052;52.588;13.396;2022-11-25T00:52:01;101167.47;;;4.58;77.57
57192;BME280;43052;52.588;13.396;2022-11-25T00:54:27;101170.84;;;4.55;77.46
57192;BME280;43052;52.588;13.396;2022-11-25T00:56:52;101158.63;;;4.49;77.58
57192;BME280;43052;52.588;13.396;2022-11-25T00:59:18;101168.38;;;4.60;77.64
57192;BME280;43052;52.588;13.396;2022-11-25T01:01:43;101167.66;;;4.65;77.77
57192;BME280;43052;52.588;13.396;2022-11-25T01:04:08;101164.31;;;4.69;77.68
57192;BME280;43052;52.588;13.396;2022-11-25T01:06:35;101163.63;;;4.77;77.67
57192;BME280;43052;52.588;13.396;2022-11-25T01:09:00;101160.22;;;4.79;77.70
57192;BME280;43052;52.588;13.396;2022-11-25T01:11:25;101162.09;;;4.85;77.47
57192;BME280;43052;52.588;13.396;2022-11-25T01:13:51;101167.41;;;4.91;77.26
57192;BME280;43052;52.588;13.396;2022-11-25T01:16:19;101162.22;;;4.91;77.37
57192;BME280;43052;52.588;13.396;2022-11-25T01:18:45;101164.91;;;4.94;77.30
57192;BME280;43052;52.588;13.396;2022-11-25T01:21:12;101160.66;;;4.98;77.33
57192;BME280;43052;52.588;13.396;2022-11-25T01:23:38;101168.41;;;4.96;77.24
57192;BME280;43052;52.588;13.396;2022-11-25T01:26:06;101165.00;;;4.97;77.19
57192;BME280;43052;52.588;13.396;2022-11-25T01:28:32;101155.47;;;4.96;77.09
57192;BME280;43052;52.588;13.396;2022-11-25T01:31:14;101164.94;;;4.96;76.92
57192;BME280;43052;52.588;13.396;2022-11-25T01:33:40;101171.03;;;4.98;76.91
57192;BME280;43052;52.588;13.396;2022-11-25T01:36:14;101151.94;;;4.93;77.10
57192;BME280;43052;52.588;13.396;2022-11-25T01:38:40;101163.06;;;4.90;77.05
57192;BME280;43052;52.588;13.396;2022-11-25T01:41:09;101151.72;;;4.85;77.35
57192;BME280;43052;52.588;13.396;2022-11-25T01:43:35;101149.22;;;4.88;77.03
57192;BME280;43052;52.588;13.396;2022-11-25T01:46:18;101140.28;;;4.75;76.79
57192;BME280;43052;52.588;13.396;2022-11-25T01:48:50;101151.38;;;4.71;76.88
57192;BME280;43052;52.588;13.396;2022-11-25T01:51:22;101153.94;;;4.69;76.88
57192;BME280;43052;52.588;13.396;2022-11-25T01:53:49;101149.47;;;4.62;77.27
57192;BME280;43052;52.588;13.396;2022-11-25T01:56:15;101147.84;;;4.67;77.24
57192;BME280;43052;52.588;13.396;2022-11-25T01:58:41;101138.19;;;4.60;77.24
57192;BME280;43052;52.588;13.396;2022-11-25T02:01:07;101137.28;;;4.60;77.31
57192;BME280;43052;52.588;13.396;2022-11-25T02:03:42;101133.81;;;4.59;77.36
57192;BME280;43052;52.588;13.396;2022-11-25T02:06:19;101147.88;;;4.69;77.16
57192;BME280;43052;52.588;13.396;2022-11-25T02:08:48;101139.34;;;4.73;77.06
57192;BME280;43052;52.588;13.396;2022-11-25T02:11:15;101130.69;;;4.73;77.11
57192;BME280;43052;52.588;13.396;2022-11-25T02:13:46;101133.13;;;4.66;77.32
57192;BME280;43052;52.588;13.396;2022-11-25T02:16:12;101130.53;;;4.66;77.24
57192;BME280;43052;52.588;13.396;2022-11-25T02:18:37;101119.13;;;4.58;77.30
57192;BME280;43052;52.588;13.396;2022-11-25T02:21:03;101113.09;;;4.59;77.33
57192;BME280;43052;52.588;13.396;2022-11-25T02:23:51;101136.63;;;4.67;77.28
57192;BME280;43052;52.588;13.396;2022-11-25T02:26:19;101126.25;;;4.67;77.10
57192;BME280;43052;52.588;13.396;2022-11-25T02:28:45;101118.41;;;4.64;77.29
57192;BME280;43052;52.588;13.396;2022-11-25T02:31:10;101128.84;;;4.67;77.30
57192;BME280;43052;52.588;13.396;2022-11-25T02:33:36;101129.72;;;4.67;77.19
57192;BME280;43052;52.588;13.396;2022-11-25T02:36:09;101125.34;;;4.65;77.35
57192;BME280;43052;52.588;13.396;2022-11-25T02:38:40;101107.00;;;4.57;77.43
57192;BME280;43052;52.588;13.396;2022-11-25T02:41:10;101112.97;;;4.53;77.46
57192;BME280;43052;52.588;13.396;2022-11-25T02:43:37;101123.44;;;4.58;77.30
57192;BME280;43052;52.588;13.396;2022-11-25T02:46:15;101127.72;;;4.57;77.61
57192;BME280;43052;52.588;13.396;2022-11-25T02:48:41;101106.88;;;4.52;77.57
57192;BME280;43052;52.588;13.396;2022-11-25T02:51:09;101115.56;;;4.53;77.72
57192;BME280;43052;52.588;13.396;2022-11-25T02:53:35;101124.16;;;4.52;77.72
57192;BME280;43052;52.588;13.396;2022-11-25T02:56:00;101137.94;;;4.51;77.77
57192;BME280;43052;52.588;13.396;2022-11-25T02:58:26;101134.53;;;4.52;77.90
57192;BME280;43052;52.588;13.396;2022-11-25T03:00:51;101128.50;;;4.53;78.25
57192;BME280;43052;52.588;13.396;2022-11-25T03:03:16;101140.91;;;4.66;77.91
57192;BME280;43052;52.588;13.396;2022-11-25T03:05:42;101136.72;;;4.72;78.02
57192;BME280;43052;52.588;13.396;2022-11-25T03:08:07;101139.34;;;4.73;77.85
57192;BME280;43052;52.588;13.396;2022-11-25T03:10:33;101147.34;;;4.82;77.81
57192;BME280;43052;52.588;13.396;2022-11-25T03:12:59;101151.75;;;4.86;77.68
57192;BME280;43052;52.588;13.396;2022-11-25T03:15:25;101163.88;;;4.88;77.90
57192;BME280;43052;52.588;13.396;2022-11-25T03:17:51;101159.50;;;4.85;77.81
57192;BME280;43052;52.588;13.396;2022-11-25T03:20:17;101155.19;;;4.85;77.93
57192;BME280;43052;52.588;13.396;2022-11-25T03:22:42;101158.59;;;4.83;78.04
57192;BME280;43052;52.588;13.396;2022-11-25T03:25:10;101162.81;;;4.79;77.99
57192;BME280;43052;52.588;13.396;2022-11-25T03:27:36;101164.72;;;4.86;78.16
57192;BME280;43052;52.588;13.396;2022-11-25T03:30:03;101156.88;;;4.83;78.07
57192;BME280;43052;52.588;13.396;2022-11-25T03:32:29;101162.28;;;4.93;78.29
57192;BME280;43052;52.588;13.396;2022-11-25T03:34:54;101160.47;;;4.90;78.20
57192;BME280;43052;52.588;13.396;2022-11-25T03:37:19;101160.66;;;4.98;78.41
57192;BME280;43052;52.588;13.396;2022-11-25T03:39:45;101167.84;;;5.10;77.97
57192;BME280;43052;52.588;13.396;2022-11-25T03:42:10;101159.38;;;5.17;77.69
57192;BME280;43052;52.588;13.396;2022-11-25T03:44:35;101146.09;;;5.03;77.81
57192;BME280;43052;52.588;13.396;2022-11-25T03:47:01;101154.78;;;5.05;77.75
57192;BME280;43052;52.588;13.396;2022-11-25T03:49:26;101163.59;;;5.12;78.00
57192;BME280;43052;52.588;13.396;2022-11-25T03:51:51;101148.94;;;5.14;77.98
57192;BME280;43052;52.588;13.396;2022-11-25T03:54:17;101156.88;;;5.22;77.64
57192;BME280;43052;52.588;13.396;2022-11-25T03:56:42;101151.53;;;5.14;77.70
57192;BME280;43052;52.588;13.396;2022-11-25T03:59:07;101157.81;;;5.24;77.67
57192;BME280;43052;52.588;13.396;2022-11-25T04:01:32;101153.44;;;5.21;77.81
57192;BME280;43052;52.588;13.396;2022-11-25T04:03:58;101148.16;;;5.16;77.56
57192;BME280;43052;52.588;13.396;2022-11-25T04:06:23;101157.69;;;5.17;77.72
57192;BME280;43052;52.588;13.396;2022-11-25T04:08:49;101160.28;;;5.19;77.76
57192;BME280;43052;52.588;13.396;2022-11-25T04:11:14;101169.06;;;5.24;77.54
57192;BME280;43052;52.588;13.396;2022-11-25T04:13:40;101169.00;;;5.21;77.42
57192;BME280;43052;52.588;13.396;2022-11-25T04:16:05;101164.72;;;5.23;77.42
57192;BME280;43052;52.588;13.396;2022-11-25T04:18:30;101158.63;;;5.21;77.43
57192;BME280;43052;52.588;13.396;2022-11-25T04:20:55;101153.34;;;5.18;77.26
57192;BME280;43052;52.588;13.396;2022-11-25T04:23:22;101166.28;;;5.16;77.44
57192;BME280;43052;52.588;13.396;2022-11-25T04:25:50;101154.91;;;5.11;77.32
57192;BME280;43052;52.588;13.396;2022-11-25T04:28:15;101175.75;;;5.14;77.39
57192;BME280;43052;52.588;13.396;2022-11-25T04:30:41;101179.19;;;5.13;77.28
57192;BME280;43052;52.588;13.396;2022-11-25T04:33:06;101174.94;;;5.17;77.53
57192;BME280;43052;52.588;13.396;2022-11-25T04:35:32;101167.03;;;5.12;77.24
57192;BME280;43052;52.588;13.396;2022-11-25T04:37:57;101183.75;;;5.24;77.10
57192;BME280;43052;52.588;13.396;2022-11-25T04:40:22;101170.53;;;5.13;77.40
57192;BME280;43052;52.588;13.396;2022-11-25T04:42:48;101177.47;;;5.14;77.36
57192;BME280;43052;52.588;13.396;2022-11-25T04:45:15;101181.13;;;5.22;77.06
57192;BME280;43052;52.588;13.396;2022-11-25T04:47:41;101186.25;;;5.21;77.45
57192;BME280;43052;52.588;13.396;2022-11-25T04:50:19;101181.94;;;5.20;77.27
57192;BME280;43052;52.588;13.396;2022-11-25T04:52:44;101176.78;;;5.21;77.08
57192;BME280;43052;52.588;13.396;2022-11-25T04:55:09;101173.97;;;5.12;77.09
57192;BME280;43052;52.588;13.396;2022-11-25T04:57:35;101185.78;;;5.00;77.20
57192;BME280;43052;52.588;13.396;2022-11-25T05:00:00;101182.81;;;4.85;77.59
57192;BME280;43052;52.588;13.396;2022-11-25T05:02:27;101183.69;;;4.85;77.59
57192;BME280;43052;52.588;13.396;2022-11-25T05:04:54;101184.47;;;4.81;77.93
57192;BME280;43052;52.588;13.396;2022-11-25T05:07:21;101184.44;;;4.80;77.97
57192;BME280;43052;52.588;13.396;2022-11-25T05:09:47;101183.44;;;4.75;78.00
57192;BME280;43052;52.588;13.396;2022-11-25T05:12:15;101179.09;;;4.74;78.30
57192;BME280;43052;52.588;13.396;2022-11-25T05:14:41;101180.81;;;4.73;78.49
57192;BME280;43052;52.588;13.396;2022-11-25T05:17:09;101183.47;;;4.76;78.35
57192;BME280;43052;52.588;13.396;2022-11-25T05:19:36;101173.28;;;4.82;78.36
57192;BME280;43052;52.588;13.396;2022-11-25T05:22:02;101185.63;;;4.93;78.12
57192;BME280;43052;52.588;13.396;2022-11-25T05:24:27;101180.47;;;4.94;77.94
57192;BME280;43052;52.588;13.396;2022-11-25T05:26:52;101190.03;;;4.97;78.24
57192;BME280;43052;52.588;13.396;2022-11-25T05:29:18;101188.31;;;4.97;78.21
57192;BME280;43052;52.588;13.396;2022-11-25T05:31:43;101199.47;;;4.95;78.03
57192;BME280;43052;52.588;13.396;2022-11-25T05:34:08;101188.03;;;4.86;78.07
57192;BME280;43052;52.588;13.396;2022-11-25T05:36:33;101187.06;;;4.81;78.36
57192;BME280;43052;52.588;13.396;2022-11-25T05:38:59;101190.47;;;4.80;78.68
57192;BME280;43052;52.588;13.396;2022-11-25T05:41:24;101202.59;;;4.80;78.59
57192;BME280;43052;52.588;13.396;2022-11-25T05:43:50;101206.03;;;4.80;78.60
57192;BME280;43052;52.588;13.396;2022-11-25T05:46:15;101199.09;;;4.79;78.57
57192;BME280;43052;52.588;13.396;2022-11-25T05:48:41;101206.06;;;4.82;78.60
57192;BME280;43052;52.588;13.396;2022-11-25T05:51:06;101201.88;;;4.87;78.88
57192;BME280;43052;52.588;13.396;2022-11-25T05:53:33;101202.00;;;4.92;78.59
57192;BME280;43052;52.588;13.396;2022-11-25T05:56:00;101202.84;;;4.91;78.70
57192;BME280;43052;52.588;13.396;2022-11-25T05:58:27;101197.69;;;4.92;78.40
57192;BME280;43052;52.588;13.396;2022-11-25T06:00:53;101203.69;;;4.91;78.27
57192;BME280;43052;52.588;13.396;2022-11-25T06:03:18;101188.69;;;4.78;78.74
57192;BME280;43052;52.588;13.396;2022-11-25T06:05:44;101208.59;;;4.79;78.99
57192;BME280;43052;52.588;13.396;2022-11-25T06:08:10;101211.31;;;4.83;78.82
57192;BME280;43052;52.588;13.396;2022-11-25T06:10:39;101196.50;;;4.79;78.85
57192;BME280;43052;52.588;13.396;2022-11-25T06:13:05;101194.91;;;4.84;78.83
57192;BME280;43052;52.588;13.396;2022-11-25T06:15:31;101201.16;;;4.93;78.69
57192;BME280;43052;52.588;13.396;2022-11-25T06:17:56;101197.53;;;4.86;78.60
57192;BME280;43052;52.588;13.396;2022-11-25T06:20:21;101204.53;;;4.90;78.90
57192;BME280;43052;52.588;13.396;2022-11-25T06:22:46;101204.53;;;4.90;78.86
57192;BME280;43052;52.588;13.396;2022-11-25T06:25:12;101200.09;;;4.84;78.91
57192;BME280;43052;52.588;13.396;2022-11-25T06:27:37;101189.41;;;4.72;78.94
57192;BME280;43052;52.588;13.396;2022-11-25T06:30:02;101190.81;;;4.59;78.75
57192;BME280;43052;52.588;13.396;2022-11-25T06:32:28;101195.63;;;4.45;79.13
57192;BME280;43052;52.588;13.396;2022-11-25T06:34:53;101189.97;;;4.27;79.41
57192;BME280;43052;52.588;13.396;2022-11-25T06:37:19;101189.63;;;4.14;79.64
57192;BME280;43052;52.588;13.396;2022-11-25T06:39:44;101197.06;;;4.02;79.93
57192;BME280;43052;52.588;13.396;2022-11-25T06:42:10;101191.44;;;3.86;80.04
57192;BME280;43052;52.588;13.396;2022-11-25T06:44:35;101199.81;;;3.78;80.27
57192;BME280;43052;52.588;13.396;2022-11-25T06:47:00;101209.22;;;3.75;80.37
57192;BME280;43052;52.588;13.396;2022-11-25T06:49:25;101211.72;;;3.72;80.28
57192;BME280;43052;52.588;13.396;2022-11-25T06:51:52;101206.31;;;3.65;80.54
57192;BME280;43052;52.588;13.396;2022-11-25T06:54:17;101201.00;;;3.60;80.90
57192;BME280;43052;52.588;13.396;2022-11-25T06:56:43;101210.78;;;3.69;80.87
57192;BME280;43052;52.588;13.396;2022-11-25T06:59:08;101222.16;;;3.75;81.18
57192;BME280;43052;52.588;13.396;2022-11-25T07:01:33;101222.44;;;3.85;81.05
57192;BME280;43052;52.588;13.396;2022-11-25T07:04:02;101216.34;;;3.83;80.92
57192;BME280;43052;52.588;13.396;2022-11-25T07:06:27;101219.16;;;3.90;80.93
57192;BME280;43052;52.588;13.396;2022-11-25T07:08:54;101234.16;;;4.02;81.08
57192;BME280;43052;52.588;13.396;2022-11-25T07:11:30;101234.38;;;4.10;80.89
57192;BME280;43052;52.588;13.396;2022-11-25T07:14:00;101234.63;;;4.19;80.71
57192;BME280;43052;52.588;13.396;2022-11-25T07:16:26;101237.31;;;4.22;80.73
57192;BME280;43052;52.588;13.396;2022-11-25T07:18:52;101241.84;;;4.30;80.86
57192;BME280;43052;52.588;13.396;2022-11-25T07:21:20;101240.38;;;4.39;80.82
57192;BME280;43052;52.588;13.396;2022-11-25T07:23:46;101244.84;;;4.45;80.57
57192;BME280;43052;52.588;13.396;2022-11-25T07:26:17;101256.41;;;4.58;80.62
57192;BME280;43052;52.588;13.396;2022-11-25T07:28:43;101252.31;;;4.66;80.64
57192;BME280;43052;52.588;13.396;2022-11-25T07:31:18;101260.00;;;4.63;80.27
57192;BME280;43052;52.588;13.396;2022-11-25T07:33:44;101255.72;;;4.64;80.57
57192;BME280;43052;52.588;13.396;2022-11-25T07:36:11;101269.78;;;4.74;80.62
57192;BME280;43052;52.588;13.396;2022-11-25T07:38:38;101269.28;;;4.87;80.67
57192;BME280;43052;52.588;13.396;2022-11-25T07:41:14;101280.88;;;5.03;80.82
57192;BME280;43052;52.588;13.396;2022-11-25T07:43:43;101278.66;;;5.17;80.52
57192;BME280;43052;52.588;13.396;2022-11-25T07:46:24;101282.41;;;5.30;80.75
57192;BME280;43052;52.588;13.396;2022-11-25T07:48:51;101277.44;;;5.38;80.82
57192;BME280;43052;52.588;13.396;2022-11-25T07:51:22;101281.31;;;5.55;80.90
57192;BME280;43052;52.588;13.396;2022-11-25T07:53:48;101272.88;;;5.64;80.79
57192;BME280;43052;52.588;13.396;2022-11-25T07:56:15;101268.53;;;5.64;81.16
57192;BME280;43052;52.588;13.396;2022-11-25T07:58:41;101267.63;;;5.62;80.82
57192;BME280;43052;52.588;13.396;2022-11-25T08:01:08;101270.94;;;5.55;80.71
57192;BME280;43052;52.588;13.396;2022-11-25T08:03:35;101267.28;;;5.47;80.86
57192;BME280;43052;52.588;13.396;2022-11-25T08:06:06;101260.19;;;5.40;80.64
57192;BME280;43052;52.588;13.396;2022-11-25T08:08:32;101259.28;;;5.38;80.62
57192;BME280;43052;52.588;13.396;2022-11-25T08:10:58;101262.78;;;5.40;80.59
57192;BME280;43052;52.588;13.396;2022-11-25T08:13:23;101252.34;;;5.37;80.77
57192;BME280;43052;52.588;13.396;2022-11-25T08:15:49;101256.78;;;5.41;80.45
57192;BME280;43052;52.588;13.396;2022-11-25T08:18:15;101259.41;;;5.44;80.60
57192;BME280;43052;52.588;13.396;2022-11-25T08:20:40;101262.19;;;5.52;80.90
57192;BME280;43052;52.588;13.396;2022-11-25T08:23:06;101282.44;;;5.67;80.72
57192;BME280;43052;52.588;13.396;2022-11-25T08:25:31;101279.94;;;5.71;80.43
57192;BME280;43052;52.588;13.396;2022-11-25T08:28:00;101268.75;;;5.74;80.24
57192;BME280;43052;52.588;13.396;2022-11-25T08:30:25;101280.09;;;5.79;80.44
57192;BME280;43052;52.588;13.396;2022-11-25T08:32:51;101276.75;;;5.83;80.14
57192;BME280;43052;52.588;13.396;2022-11-25T08:35:18;101279.34;;;5.83;80.11
57192;BME280;43052;52.588;13.396;2022-11-25T08:37:43;101273.31;;;5.84;79.89
57192;BME280;43052;52.588;13.396;2022-11-25T08:40:09;101273.13;;;5.76;79.78
57192;BME280;43052;52.588;13.396;2022-11-25T08:42:36;101279.41;;;5.86;80.00
57192;BME280;43052;52.588;13.396;2022-11-25T08:45:01;101287.59;;;6.03;79.64
57192;BME280;43052;52.588;13.396;2022-11-25T08:47:26;101282.50;;;6.08;79.75
57192;BME280;43052;52.588;13.396;2022-11-25T08:49:52;101283.09;;;5.97;79.77
57192;BME280;43052;52.588;13.396;2022-11-25T08:52:19;101289.56;;;6.14;79.69
57192;BME280;43052;52.588;13.396;2022-11-25T08:54:44;101288.16;;;6.30;79.77
57192;BME280;43052;52.588;13.396;2022-11-25T08:57:10;101289.41;;;6.50;79.55
57192;BME280;43052;52.588;13.396;2022-11-25T08:59:35;101284.41;;;6.59;79.37
57192;BME280;43052;52.588;13.396;2022-11-25T09:02:01;101282.72;;;6.63;78.53
57192;BME280;43052;52.588;13.396;2022-11-25T09:04:26;101275.69;;;6.57;78.86
57192;BME280;43052;52.588;13.396;2022-11-25T09:06:51;101275.75;;;6.59;78.58
57192;BME280;43052;52.588;13.396;2022-11-25T09:09:17;101283.44;;;6.54;78.85
57192;BME280;43052;52.588;13.396;2022-11-25T09:11:42;101293.88;;;6.56;78.84
57192;BME280;43052;52.588;13.396;2022-11-25T09:14:07;101298.28;;;6.60;78.30
57192;BME280;43052;52.588;13.396;2022-11-25T09:16:33;101282.66;;;6.58;78.38
57192;BME280;43052;52.588;13.396;2022-11-25T09:18:58;101285.31;;;6.62;78.44
57192;BME280;43052;52.588;13.396;2022-11-25T09:21:24;101290.69;;;6.71;78.56
57192;BME280;43052;52.588;13.396;2022-11-25T09:23:50;101299.56;;;6.82;78.09
57192;BME280;43052;52.588;13.396;2022-11-25T09:26:28;101300.44;;;6.83;77.94
57192;BME280;43052;52.588;13.396;2022-11-25T09:28:55;101303.97;;;6.88;78.03
57192;BME280;43052;52.588;13.396;2022-11-25T09:31:21;101296.19;;;6.88;77.82
57192;BME280;43052;52.588;13.396;2022-11-25T09:33:46;101287.59;;;6.92;77.43
57192;BME280;43052;52.588;13.396;2022-11-25T09:36:14;101295.31;;;6.87;77.21
57192;BME280;43052;52.588;13.396;2022-11-25T09:38:40;101284.47;;;6.63;77.51
57192;BME280;43052;52.588;13.396;2022-11-25T09:41:31;101293.19;;;6.66;77.81
57192;BME280;43052;52.588;13.396;2022-11-25T09:47:21;101283.91;;;7.30;76.60
57192;BME280;43052;52.588;13.396;2022-11-25T09:55:22;101274.38;;;7.89;75.18
57192;BME280;43052;52.588;13.396;2022-11-25T10:00:41;101279.75;;;7.40;74.69
57192;BME280;43052;52.588;13.396;2022-11-25T10:06:25;101279.28;;;7.67;75.04
57192;BME280;43052;52.588;13.396;2022-11-25T10:09:00;101270.75;;;7.77;74.14
57192;BME280;43052;52.588;13.396;2022-11-25T10:11:41;101269.69;;;7.64;73.89
57192;BME280;43052;52.588;13.396;2022-11-25T10:22:47;101268.09;;;7.17;75.10
57192;BME280;43052;52.588;13.396;2022-11-25T10:25:25;101274.38;;;7.30;73.74
57192;BME280;43052;52.588;13.396;2022-11-25T10:30:25;101272.50;;;7.23;74.81
57192;BME280;43052;52.588;13.396;2022-11-25T10:33:09;101278.91;;;7.42;74.22
57192;BME280;43052;52.588;13.396;2022-11-25T10:35:46;101283.34;;;7.51;74.65
57192;BME280;43052;52.588;13.396;2022-11-25T10:39:03;101272.22;;;7.60;74.16
57192;BME280;43052;52.588;13.396;2022-11-25T10:41:03;101274.56;;;7.43;73.70
57192;BME280;43052;52.588;13.396;2022-11-25T10:43:30;101271.66;;;7.22;73.69
57192;BME280;43052;52.588;13.396;2022-11-25T10:51:48;101262.22;;;7.29;73.51
57192;BME280;43052;52.588;13.396;2022-11-25T10:57:00;101278.97;;;6.93;73.78
57192;BME280;43052;52.588;13.396;2022-11-25T10:59:29;101286.00;;;7.00;73.92
57192;BME280;43052;52.588;13.396;2022-11-25T11:04:57;101290.38;;;7.53;73.26
57192;BME280;43052;52.588;13.396;2022-11-25T11:07:25;101292.97;;;7.55;72.84
57192;BME280;43052;52.588;13.396;2022-11-25T11:09:51;101283.34;;;7.49;73.06
57192;BME280;43052;52.588;13.396;2022-11-25T11:12:25;101293.06;;;7.60;72.89
57192;BME280;43052;52.588;13.396;2022-11-25T11:14:52;101284.59;;;7.75;72.36
57192;BME280;43052;52.588;13.396;2022-11-25T11:17:29;101276.94;;;7.84;72.46
57192;BME280;43052;52.588;13.396;2022-11-25T11:20:00;101269.44;;;8.10;72.41
57192;BME280;43052;52.588;13.396;2022-11-25T11:22:25;101281.06;;;8.39;71.36
57192;BME280;43052;52.588;13.396;2022-11-25T11:25:05;101264.63;;;8.41;71.06
57192;BME280;43052;52.588;13.396;2022-11-25T11:27:35;101268.88;;;8.35;70.77
57192;BME280;43052;52.588;13.396;2022-11-25T11:30:08;101270.75;;;8.45;71.11
57192;BME280;43052;52.588;13.396;2022-11-25T11:32:34;101272.41;;;8.40;70.87
57192;BME280;43052;52.588;13.396;2022-11-25T11:35:07;101275.75;;;8.29;71.15
57192;BME280;43052;52.588;13.396;2022-11-25T11:37:41;101272.88;;;8.08;71.08
57192;BME280;43052;52.588;13.396;2022-11-25T11:40:24;101279.63;;;7.92;71.28
57192;BME280;43052;52.588;13.396;2022-11-25T11:45:39;101271.53;;;7.73;71.12
57192;BME280;43052;52.588;13.396;2022-11-25T11:48:39;101271.16;;;7.47;71.64
57192;BME280;43052;52.588;13.396;2022-11-25T11:54:14;101260.22;;;7.13;72.64
57192;BME280;43052;52.588;13.396;2022-11-25T11:56:48;101266.19;;;7.07;72.84
57192;BME280;43052;52.588;13.396;2022-11-25T12:02:48;101275.44;;;6.91;73.04
57192;BME280;43052;52.588;13.396;2022-11-25T12:05:18;101261.59;;;6.90;73.40
57192;BME280;43052;52.588;13.396;2022-11-25T12:07:53;101261.50;;;6.86;73.18
57192;BME280;43052;52.588;13.396;2022-11-25T12:10:32;101262.28;;;6.83;73.36
57192;BME280;43052;52.588;13.396;2022-11-25T12:13:13;101252.59;;;6.73;73.93
57192;BME280;43052;52.588;13.396;2022-11-25T12:16:07;101250.88;;;6.75;73.98
57192;BME280;43052;52.588;13.396;2022-11-25T12:18:46;101255.91;;;6.66;73.94
57192;BME280;43052;52.588;13.396;2022-11-25T12:21:44;101253.19;;;6.58;74.08
57192;BME280;43052;52.588;13.396;2022-11-25T12:24:30;101262.50;;;6.47;74.38
57192;BME280;43052;52.588;13.396;2022-11-25T12:27:19;101253.53;;;6.31;74.65
57192;BME280;43052;52.588;13.396;2022-11-25T12:29:54;101261.28;;;6.27;75.32
57192;BME280;43052;52.588;13.396;2022-11-25T12:35:24;101263.56;;;6.12;75.65
57192;BME280;43052;52.588;13.396;2022-11-25T12:38:04;101263.56;;;6.12;75.77
57192;BME280;43052;52.588;13.396;2022-11-25T12:41:25;101255.78;;;6.12;75.63
57192;BME280;43052;52.588;13.396;2022-11-25T12:43:57;101250.31;;;6.00;76.05
57192;BME280;43052;52.588;13.396;2022-11-25T12:46:33;101260.53;;;5.93;76.15
57192;BME280;43052;52.588;13.396;2022-11-25T12:48:59;101243.81;;;5.80;76.41
57192;BME280;43052;52.588;13.396;2022-11-25T12:51:46;101258.50;;;5.80;76.45
57192;BME280;43052;52.588;13.396;2022-11-25T12:54:41;101264.59;;;5.80;76.77
57192;BME280;43052;52.588;13.396;2022-11-25T12:57:44;101269.59;;;5.73;77.40
57192;BME280;43052;52.588;13.396;2022-11-25T13:00:22;101251.34;;;5.70;77.67
57192;BME280;43052;52.588;13.396;2022-11-25T13:03:28;101256.63;;;5.74;77.45
57192;BME280;43052;52.588;13.396;2022-11-25T13:06:15;101246.97;;;5.67;77.36
57192;BME280;43052;52.588;13.396;2022-11-25T13:11:58;101262.78;;;5.78;77.52
57192;BME280;43052;52.588;13.396;2022-11-25T13:15:11;101255.81;;;5.75;77.57
57192;BME280;43052;52.588;13.396;2022-11-25T13:17:42;101266.28;;;5.80;77.78
57192;BME280;43052;52.588;13.396;2022-11-25T13:23:07;101272.47;;;5.85;78.15
57192;BME280;43052;52.588;13.396;2022-11-25T13:25:45;101284.88;;;5.99;78.20
57192;BME280;43052;52.588;13.396;2022-11-25T13:28:34;101276.34;;;6.03;78.04
57192;BME280;43052;52.588;13.396;2022-11-25T13:36:22;101276.53;;;6.12;77.72
57192;BME280;43052;52.588;13.396;2022-11-25T13:44:03;101294.22;;;6.30;77.67
57192;BME280;43052;52.588;13.396;2022-11-25T13:46:37;101304.78;;;6.38;77.68
57192;BME280;43052;52.588;13.396;2022-11-25T13:49:06;101304.00;;;6.43;77.54
57192;BME280;43052;52.588;13.396;2022-11-25T13:51:49;101301.34;;;6.39;77.35
57192;BME280;43052;52.588;13.396;2022-11-25T13:54:17;101306.53;;;6.39;77.53
57192;BME280;43052;52.588;13.396;2022-11-25T13:56:57;101302.03;;;6.32;77.51
57192;BME280;43052;52.588;13.396;2022-11-25T13:59:35;101303.78;;;6.33;77.62
57192;BME280;43052;52.588;13.396;2022-11-25T14:02:28;101289.84;;;6.27;77.54
57192;BME280;43052;52.588;13.396;2022-11-25T14:08:19;101309.69;;;6.24;77.72
57192;BME280;43052;52.588;13.396;2022-11-25T14:11:34;101306.94;;;6.18;77.80